Time;durP1;ratioP1;P1;durP2;ratioP2;P2;SDS_P1;SDS_P2;PMS_P1;PMS_P2;Temp;Humidity;BMP_temperature;BMP_pressure;BME280_temperature;BME280_humidity;BME280_pressure;Samples;Min_cycle;Max_cycle;Signal;HPM_P1;HPM_P2
2020/12/11 00:01:48;;;;;;;1.23;1.00;;;;;;;26.68;27.98;95401.19;4943298;28;20055;-46
2020/12/11 00:04:14;;;;;;;1.33;1.17;;;;;;;26.68;28.11;95401.19;4955944;28;20050;-44
2020/12/11 00:06:39;;;;;;;1.63;1.17;;;;;;;26.67;28.09;95403.00;4946640;28;20050;-47
2020/12/11 00:09:05;;;;;;;1.40;1.00;;;;;;;26.68;27.93;95411.69;4954240;28;20046;-47
2020/12/11 00:11:31;;;;;;;0.98;0.80;;;;;;;26.65;28.01;95406.69;4951456;28;20451;-46
2020/12/11 00:13:57;;;;;;;1.75;1.00;;;;;;;26.68;28.09;95407.28;4957556;28;20042;-49
2020/12/11 00:16:22;;;;;;;1.45;1.00;;;;;;;26.68;28.08;95406.44;4956669;28;20053;-45
2020/12/11 00:18:48;;;;;;;2.75;1.17;;;;;;;26.69;28.00;95402.88;4957007;28;20870;-44
2020/12/11 00:21:13;;;;;;;1.95;0.95;;;;;;;26.69;27.98;95397.63;4957403;28;20260;-45
2020/12/11 00:23:39;;;;;;;1.75;1.17;;;;;;;26.68;28.07;95402.03;4955206;28;20043;-46
2020/12/11 00:26:04;;;;;;;1.23;1.10;;;;;;;26.68;27.94;95402.03;4960609;28;20054;-43
2020/12/11 00:28:30;;;;;;;1.38;1.20;;;;;;;26.69;28.03;95402.88;4956457;28;20027;-47
2020/12/11 00:30:56;;;;;;;1.08;0.90;;;;;;;26.68;28.05;95401.19;4957654;28;20652;-46
2020/12/11 00:33:22;;;;;;;1.33;1.00;;;;;;;26.68;27.88;95406.44;4958519;28;20053;-45
2020/12/11 00:35:47;;;;;;;1.25;1.00;;;;;;;26.67;28.12;95404.78;4959170;28;20129;-46
2020/12/11 00:38:13;;;;;;;2.03;1.08;;;;;;;26.68;28.03;95396.78;4957046;28;20043;-45
2020/12/11 00:40:38;;;;;;;1.00;0.80;;;;;;;26.66;28.01;95377.66;4959008;28;20437;-46
2020/12/11 00:43:04;;;;;;;0.88;0.80;;;;;;;26.68;28.03;95390.66;4960190;28;20043;-45
2020/12/11 00:45:30;;;;;;;1.00;0.90;;;;;;;26.68;28.14;95374.91;4951445;28;21321;-46
2020/12/11 00:47:55;;;;;;;0.80;0.80;;;;;;;26.67;27.92;95367.97;4955276;28;20043;-46
2020/12/11 00:50:22;;;;;;;1.20;0.95;;;;;;;26.67;27.84;95362.72;4957968;28;20039;-47
2020/12/11 00:52:48;;;;;;;1.23;0.75;;;;;;;26.66;28.01;95359.25;4958056;28;20046;-45
2020/12/11 00:55:16;;;;;;;1.48;0.85;;;;;;;26.65;28.06;95359.41;4954146;28;20052;-45
2020/12/11 00:57:42;;;;;;;1.00;0.80;;;;;;;26.64;27.96;95368.22;4941879;28;574444;-43
2020/12/11 01:00:10;;;;;;;1.55;1.00;;;;;;;26.63;28.17;95377.06;4970772;28;20057;-47
2020/12/11 01:02:36;;;;;;;0.95;0.70;;;;;;;26.63;28.03;95369.19;4956994;28;20667;-46
2020/12/11 01:05:02;;;;;;;1.67;1.10;;;;;;;26.61;28.20;95367.53;4958095;28;20043;-45
2020/12/11 01:07:27;;;;;;;1.00;0.90;;;;;;;26.61;28.13;95359.63;4956728;28;20500;-48
2020/12/11 01:09:53;;;;;;;0.70;0.70;;;;;;;26.61;28.18;95349.13;4955146;28;20050;-47
2020/12/11 01:12:18;;;;;;;0.93;0.80;;;;;;;26.60;28.03;95342.22;4956396;28;20064;-46
2020/12/11 01:14:44;;;;;;;1.08;0.70;;;;;;;26.60;28.03;95336.94;4973146;28;20043;-45
2020/12/11 01:17:09;;;;;;;1.23;0.90;;;;;;;26.60;28.13;95334.31;4954087;28;20038;-48
2020/12/11 01:19:35;;;;;;;0.80;0.80;;;;;;;26.59;27.79;95323.94;4952909;28;20085;-46
2020/12/11 01:22:04;;;;;;;0.95;0.80;;;;;;;26.57;28.02;95318.81;4957603;28;20041;-46
2020/12/11 01:24:32;;;;;;;0.90;0.70;;;;;;;26.57;28.13;95317.94;4958048;28;21416;-47
2020/12/11 01:26:58;;;;;;;1.63;0.73;;;;;;;26.56;28.05;95313.66;4953165;28;20141;-45
2020/12/11 01:29:24;;;;;;;1.27;0.90;;;;;;;26.54;27.93;95305.09;4959675;28;20039;-43
2020/12/11 01:31:54;;;;;;;1.23;0.77;;;;;;;26.53;28.09;95308.66;4955798;28;20039;-47
2020/12/11 01:34:20;;;;;;;1.10;0.80;;;;;;;26.53;27.92;95298.13;4953796;28;20081;-48
2020/12/11 01:36:46;;;;;;;0.82;0.70;;;;;;;26.52;28.08;95313.09;4969831;28;20701;-48
2020/12/11 01:39:11;;;;;;;0.73;0.70;;;;;;;26.51;28.03;95314.03;4955743;28;20050;-46
2020/12/11 01:41:37;;;;;;;0.70;0.70;;;;;;;26.52;28.07;95312.22;4962251;28;20035;-48
2020/12/11 01:44:08;;;;;;;1.15;0.80;;;;;;;26.50;28.11;95314.97;4953511;28;20118;-44
2020/12/11 01:46:39;;;;;;;1.48;0.60;;;;;;;26.50;28.15;95312.34;4956267;28;20465;-46
2020/12/11 01:49:05;;;;;;;0.70;0.70;;;;;;;26.48;28.03;95307.22;4958441;28;20031;-46
2020/12/11 01:51:31;;;;;;;1.00;0.88;;;;;;;26.49;27.99;95313.31;4957354;28;20062;-45
2020/12/11 01:53:56;;;;;;;0.70;0.70;;;;;;;26.49;28.04;95310.69;4969581;28;20042;-45
2020/12/11 01:56:21;;;;;;;1.10;0.93;;;;;;;26.48;27.85;95301.97;4957989;28;20097;-45
2020/12/11 01:58:47;;;;;;;1.15;0.70;;;;;;;26.50;28.13;95299.22;4952111;28;20050;-48
2020/12/11 02:01:16;;;;;;;0.80;0.80;;;;;;;26.50;28.28;95303.66;4951810;28;20108;-45
2020/12/11 02:03:42;;;;;;;1.42;0.70;;;;;;;26.50;28.02;95301.84;4956466;28;20465;-45
2020/12/11 02:06:08;;;;;;;1.90;0.80;;;;;;;26.51;28.18;95295.66;4974344;28;20122;-42
2020/12/11 02:08:33;;;;;;;0.55;0.55;;;;;;;26.53;28.04;95292.88;4953379;28;20047;-47
2020/12/11 02:10:59;;;;;;;1.23;0.70;;;;;;;26.54;27.93;95290.13;4971058;28;20157;-45
2020/12/11 02:13:25;;;;;;;1.00;0.70;;;;;;;26.54;28.14;95284.88;4957381;28;20472;-42
2020/12/11 02:15:51;;;;;;;0.88;0.60;;;;;;;26.55;28.11;95277.84;4958990;28;20034;-45
2020/12/11 02:18:16;;;;;;;1.30;0.90;;;;;;;26.52;27.94;95260.53;4956538;28;20460;-46
2020/12/11 02:20:42;;;;;;;0.80;0.80;;;;;;;26.53;27.96;95251.69;4954515;28;20039;-43
2020/12/11 02:23:08;;;;;;;1.00;0.63;;;;;;;26.52;27.88;95255.28;4957050;28;20034;-48
2020/12/11 02:25:33;;;;;;;1.00;0.88;;;;;;;26.52;27.88;95244.78;4957121;28;20460;-45
2020/12/11 02:27:59;;;;;;;0.80;0.80;;;;;;;26.51;28.06;95235.25;4958949;28;20043;-46
2020/12/11 02:30:24;;;;;;;0.70;0.70;;;;;;;26.48;28.00;95232.84;4953376;28;20067;-43
2020/12/11 02:32:49;;;;;;;1.35;0.73;;;;;;;26.47;27.93;95236.44;4953826;28;20035;-41
2020/12/11 02:35:15;;;;;;;1.13;0.85;;;;;;;26.47;27.97;95225.94;4954844;28;20046;-44
2020/12/11 02:37:41;;;;;;;0.75;0.75;;;;;;;26.47;27.83;95218.06;4955687;28;20133;-47
2020/12/11 02:40:07;;;;;;;0.98;0.90;;;;;;;26.45;27.83;95206.81;4952452;28;20137;-46
2020/12/11 02:42:32;;;;;;;1.02;0.77;;;;;;;26.41;27.77;95201.00;4969270;28;20050;-46
2020/12/11 02:44:59;;;;;;;0.80;0.80;;;;;;;26.40;27.89;95195.84;4953490;28;20101;-46
2020/12/11 02:47:25;;;;;;;1.48;0.90;;;;;;;26.38;28.03;95200.41;4956756;28;20038;-46
2020/12/11 02:49:51;;;;;;;0.70;0.70;;;;;;;26.38;27.97;95203.03;4956440;28;20074;-48
2020/12/11 02:52:16;;;;;;;0.90;0.80;;;;;;;26.37;28.00;95191.69;4954297;28;20050;-45
2020/12/11 02:54:43;;;;;;;0.63;0.63;;;;;;;26.37;28.16;95198.72;4955114;28;20424;-45
2020/12/11 02:57:09;;;;;;;0.65;0.60;;;;;;;26.37;28.04;95198.72;4955962;28;20051;-45
2020/12/11 02:59:36;;;;;;;1.00;0.63;;;;;;;26.40;28.16;95204.59;4957157;28;20078;-47
2020/12/11 03:02:01;;;;;;;0.80;0.73;;;;;;;26.41;28.23;95205.41;4955197;28;20051;-47
2020/12/11 03:04:27;;;;;;;0.80;0.73;;;;;;;26.44;28.10;95207.78;4953021;28;20054;-45
2020/12/11 03:06:53;;;;;;;1.35;0.80;;;;;;;26.44;28.18;95199.91;4957635;28;20113;-47
2020/12/11 03:09:19;;;;;;;1.02;0.80;;;;;;;26.44;27.99;95203.38;4957552;28;20046;-44
2020/12/11 03:11:45;;;;;;;1.33;0.80;;;;;;;26.44;28.08;95190.25;4971086;28;20051;-48
2020/12/11 03:14:11;;;;;;;0.82;0.70;;;;;;;26.46;28.09;95192.72;4955838;28;20519;-44
2020/12/11 03:16:37;;;;;;;0.85;0.55;;;;;;;26.44;28.08;95192.88;4953456;28;20035;-44
2020/12/11 03:19:03;;;;;;;0.98;0.70;;;;;;;26.46;28.07;95193.56;4957576;28;20042;-46
2020/12/11 03:21:28;;;;;;;0.73;0.60;;;;;;;26.46;27.88;95183.06;4955831;28;20502;-44
2020/12/11 03:23:53;;;;;;;1.55;0.88;;;;;;;26.48;27.93;95180.31;4954271;28;20042;-46
2020/12/11 03:26:19;;;;;;;1.25;0.70;;;;;;;26.49;27.90;95171.47;4956666;28;20039;-46
2020/12/11 03:28:45;;;;;;;1.35;0.70;;;;;;;26.48;27.88;95175.06;4954200;28;20105;-45
2020/12/11 03:31:11;;;;;;;1.33;0.80;;;;;;;26.48;27.86;95173.25;4953951;28;20046;-45
2020/12/11 03:33:37;;;;;;;0.82;0.70;;;;;;;26.49;27.84;95166.22;4956424;28;20047;-45
2020/12/11 03:36:02;;;;;;;1.30;0.80;;;;;;;26.47;27.92;95161.09;4956708;28;20054;-45
2020/12/11 03:38:28;;;;;;;0.80;0.80;;;;;;;26.46;28.02;95154.16;4955783;28;20544;-48
2020/12/11 03:40:54;;;;;;;0.88;0.80;;;;;;;26.45;27.86;95143.78;4959042;28;20189;-44
2020/12/11 03:43:19;;;;;;;1.58;1.00;;;;;;;26.42;27.94;95133.53;4956209;28;20094;-45
2020/12/11 03:45:45;;;;;;;1.27;0.80;;;;;;;26.42;28.03;95123.00;4963111;28;20039;-45
2020/12/11 03:48:12;;;;;;;1.13;0.90;;;;;;;26.43;28.00;95114.19;4958191;28;20035;-46
2020/12/11 03:50:38;;;;;;;0.90;0.73;;;;;;;26.42;27.83;95110.72;4958704;28;20142;-47
2020/12/11 03:53:03;;;;;;;0.75;0.70;;;;;;;26.42;28.03;95123.00;4953669;28;20043;-45
2020/12/11 03:55:30;;;;;;;0.73;0.70;;;;;;;26.42;27.94;95120.38;4972629;28;20058;-45
2020/12/11 03:57:56;;;;;;;0.93;0.80;;;;;;;26.42;27.93;95100.22;4957909;28;20818;-45
2020/12/11 04:00:22;;;;;;;1.10;0.93;;;;;;;26.41;27.84;95100.34;4954424;28;20122;-46
2020/12/11 04:02:48;;;;;;;1.55;0.70;;;;;;;26.41;28.01;95087.22;4954439;28;21027;-45
2020/12/11 04:05:13;;;;;;;1.55;0.80;;;;;;;26.41;28.23;95081.97;4956502;28;20125;-47
2020/12/11 04:07:39;;;;;;;2.20;1.00;;;;;;;26.39;27.75;95073.38;4958078;28;20047;-46
2020/12/11 04:10:05;;;;;;;1.98;0.90;;;;;;;26.38;27.93;95077.81;4957219;28;20605;-46
2020/12/11 04:12:31;;;;;;;0.93;0.73;;;;;;;26.39;27.95;95068.13;4957145;28;20404;-45
2020/12/11 04:14:57;;;;;;;0.80;0.80;;;;;;;26.39;27.89;95066.31;4963582;28;20034;-46
2020/12/11 04:17:23;;;;;;;0.85;0.80;;;;;;;26.37;28.10;95073.50;4956675;28;20050;-45
2020/12/11 04:19:49;;;;;;;1.15;0.85;;;;;;;26.39;28.04;95073.38;4954853;28;20521;-47
2020/12/11 04:22:15;;;;;;;1.42;0.82;;;;;;;26.39;28.02;95076.03;4957109;28;21721;-43
2020/12/11 04:24:41;;;;;;;1.00;0.90;;;;;;;26.38;27.93;95076.97;4958350;28;20050;-46
2020/12/11 04:27:07;;;;;;;3.65;2.42;;;;;;;26.29;27.53;95066.28;4957967;28;20054;-42
2020/12/11 04:29:33;;;;;;;1.40;1.15;;;;;;;26.35;27.81;95078.88;4956121;28;20047;-44
2020/12/11 04:31:59;;;;;;;0.63;0.63;;;;;;;26.35;27.85;95076.25;4957703;28;20054;-44
2020/12/11 04:34:25;;;;;;;0.80;0.70;;;;;;;26.34;28.06;95074.59;4960443;28;20129;-45
2020/12/11 04:36:54;;;;;;;0.98;0.80;;;;;;;26.33;28.04;95067.69;4957819;28;20117;-44
2020/12/11 04:39:20;;;;;;;1.65;0.80;;;;;;;26.33;28.00;95077.34;4953671;28;20043;-47
2020/12/11 04:41:45;;;;;;;1.58;0.68;;;;;;;26.34;28.12;95079.84;4960035;28;20043;-47
2020/12/11 04:44:11;;;;;;;1.00;0.90;;;;;;;26.34;27.94;95073.75;4969905;28;20049;-45
2020/12/11 04:46:36;;;;;;;1.23;0.80;;;;;;;26.37;28.13;95088.44;4958422;28;20554;-44
2020/12/11 04:49:02;;;;;;;0.85;0.70;;;;;;;26.37;28.01;95080.53;4974676;28;20043;-44
2020/12/11 04:51:29;;;;;;;1.58;0.70;;;;;;;26.37;28.02;95077.91;4972528;28;20108;-45
2020/12/11 04:53:55;;;;;;;1.00;0.75;;;;;;;26.37;27.96;95077.91;4956191;28;20030;-45
2020/12/11 04:56:21;;;;;;;0.68;0.68;;;;;;;26.37;28.00;95072.66;4977335;28;20169;-45
2020/12/11 04:58:51;;;;;;;0.88;0.82;;;;;;;26.33;27.84;95057.19;4958293;28;20043;-49
2020/12/11 05:01:43;;;;;;;0.77;0.77;;;;;;;26.35;28.04;95060.50;4952234;28;20043;-44
2020/12/11 05:04:09;;;;;;;0.82;0.63;;;;;;;26.36;27.91;95050.84;4952493;28;20568;-45
2020/12/11 05:06:34;;;;;;;3.03;0.73;;;;;;;26.34;28.13;95048.34;4960166;28;20097;-44
2020/12/11 05:09:10;;;;;;;2.00;0.93;;;;;;;26.33;28.14;95041.44;4959422;28;20050;-44
2020/12/11 05:11:36;;;;;;;1.70;0.70;;;;;;;26.32;27.99;95041.56;4954267;28;20497;-46
2020/12/11 05:14:01;;;;;;;0.70;0.70;;;;;;;26.33;27.96;95045.84;4953656;28;20070;-45
2020/12/11 05:16:27;;;;;;;1.48;0.70;;;;;;;26.34;27.87;95032.59;4956214;28;20047;-47
2020/12/11 05:19:02;;;;;;;0.70;0.70;;;;;;;26.33;27.76;95036.19;4956740;28;20409;-45
2020/12/11 05:21:30;;;;;;;1.13;0.90;;;;;;;26.34;27.99;95032.59;4957831;28;20035;-45
2020/12/11 05:23:59;;;;;;;0.60;0.60;;;;;;;26.33;28.00;95028.31;4954149;28;20035;-46
2020/12/11 05:26:28;;;;;;;1.17;0.88;;;;;;;26.34;28.04;95027.34;4959829;28;20077;-40
2020/12/11 05:28:54;;;;;;;0.60;0.60;;;;;;;26.33;27.87;95025.69;4957800;28;20050;-45
2020/12/11 05:31:20;;;;;;;0.90;0.90;;;;;;;26.34;27.86;95029.13;4958319;28;20565;-45
2020/12/11 05:34:18;;;;;;;0.95;0.80;;;;;;;26.34;27.74;95031.75;4958263;28;20050;-44
2020/12/11 05:36:45;;;;;;;1.27;0.82;;;;;;;26.34;27.80;95032.59;4961132;28;20030;-44
2020/12/11 05:39:11;;;;;;;0.77;0.75;;;;;;;26.34;27.81;95032.59;4959481;28;20035;-46
2020/12/11 05:41:37;;;;;;;0.82;0.63;;;;;;;26.35;27.88;95049.16;4962286;28;20416;-46
2020/12/11 05:44:03;;;;;;;1.08;0.68;;;;;;;26.37;27.91;95046.41;4962015;28;20043;-45
2020/12/11 05:46:30;;;;;;;1.15;0.73;;;;;;;26.35;27.84;95038.66;4961263;28;20129;-44
2020/12/11 05:48:57;;;;;;;1.27;0.80;;;;;;;26.34;27.80;95029.97;4958846;28;20065;-50
2020/12/11 05:51:23;;;;;;;1.40;0.95;;;;;;;26.34;27.86;95029.97;4958151;28;20063;-45
2020/12/11 05:53:48;;;;;;;2.55;0.60;;;;;;;26.33;27.84;95027.47;4971454;28;20049;-47
2020/12/11 05:56:14;;;;;;;0.82;0.60;;;;;;;26.33;27.90;95020.44;4973083;28;20377;-45
2020/12/11 05:58:40;;;;;;;0.70;0.68;;;;;;;26.34;27.91;95016.00;4956990;28;20034;-46
2020/12/11 06:01:05;;;;;;;0.95;0.80;;;;;;;26.34;27.92;95016.81;4968865;28;20685;-47
2020/12/11 06:03:31;;;;;;;0.70;0.70;;;;;;;26.31;28.01;95011.81;4953798;28;20031;-47
2020/12/11 06:05:58;;;;;;;1.15;0.70;;;;;;;26.32;27.99;94997.72;4952520;28;20054;-45
2020/12/11 06:08:27;;;;;;;0.70;0.70;;;;;;;26.30;27.83;95004.91;4955505;28;20054;-45
2020/12/11 06:10:52;;;;;;;0.55;0.55;;;;;;;26.30;27.98;94998.81;4957787;28;20498;-45
2020/12/11 06:13:28;;;;;;;0.88;0.70;;;;;;;26.28;27.88;94995.50;4955306;28;20051;-46
2020/12/11 06:15:53;;;;;;;1.02;0.90;;;;;;;26.29;27.92;94997.16;4952743;28;20508;-46
2020/12/11 06:18:23;;;;;;;0.80;0.80;;;;;;;26.28;27.90;94985.81;4942707;28;20057;-45
2020/12/11 06:20:53;;;;;;;0.52;0.50;;;;;;;26.27;28.06;94993.84;4968493;28;20046;-46
2020/12/11 06:23:25;;;;;;;0.82;0.65;;;;;;;26.26;28.04;94998.25;4959968;28;20073;-46
2020/12/11 06:25:50;;;;;;;0.85;0.60;;;;;;;26.27;28.02;94996.47;4958011;28;20043;-46
2020/12/11 06:28:36;;;;;;;9.85;1.27;;;;;;;26.26;27.92;95005.28;4960962;28;20114;-44
2020/12/11 06:31:05;;;;;;;2.10;0.60;;;;;;;26.25;27.90;94991.31;4953642;28;20035;-48
2020/12/11 06:33:31;;;;;;;0.60;0.60;;;;;;;26.25;28.15;94986.06;4958762;28;20054;-45
2020/12/11 06:36:00;;;;;;;0.70;0.70;;;;;;;26.23;28.21;94988.81;4956416;28;20043;-45
2020/12/11 06:38:50;;;;;;;0.60;0.60;;;;;;;26.24;28.22;94984.41;4951814;28;20567;-44
2020/12/11 06:41:27;;;;;;;0.85;0.68;;;;;;;26.23;28.05;94977.47;4957030;28;20046;-46
2020/12/11 06:43:53;;;;;;;0.95;0.68;;;;;;;26.22;28.10;94983.69;4951541;28;20039;-45
2020/12/11 06:46:20;;;;;;;6.43;3.40;;;;;;;26.20;26.00;94975.13;4953982;28;20093;-44
2020/12/11 06:49:16;;;;;;;1.70;1.60;;;;;;;26.16;27.52;94976.34;4955672;28;20055;-46
2020/12/11 06:51:45;;;;;;;2.63;1.15;;;;;;;26.14;27.79;94967.72;4959452;28;20547;-47
2020/12/11 06:54:16;;;;;;;65.43;2.03;;;;;;;26.12;27.76;94969.66;4957296;28;20065;-46
2020/12/11 06:56:43;;;;;;;10.45;1.40;;;;;;;26.08;27.67;94971.69;4958201;28;20038;-46
2020/12/11 06:59:18;;;;;;;1.95;1.40;;;;;;;26.05;27.71;94970.16;4952406;28;20138;-46
2020/12/11 07:01:43;;;;;;;1.88;1.38;;;;;;;26.01;27.48;94968.75;4953629;28;20229;-46
2020/12/11 07:04:09;;;;;;;2.33;1.52;;;;;;;25.97;27.43;94951.59;4955155;28;20043;-46
2020/12/11 07:06:34;;;;;;;3.53;1.52;;;;;;;25.98;27.57;94961.16;4955272;28;20070;-46
2020/12/11 07:09:03;;;;;;;2.53;1.60;;;;;;;25.97;27.32;94962.09;4952626;28;20141;-44
2020/12/11 07:11:29;;;;;;;3.30;1.40;;;;;;;25.99;27.60;94954.94;4954666;28;20074;-47
2020/12/11 07:13:55;;;;;;;1.73;0.90;;;;;;;26.01;27.64;94953.00;4955883;28;20042;-44
2020/12/11 07:16:20;;;;;;;1.83;1.20;;;;;;;26.03;27.78;94953.72;4970464;28;20038;-48
2020/12/11 07:18:46;;;;;;;1.42;1.10;;;;;;;26.04;27.82;94954.53;4957060;28;20058;-45
2020/12/11 07:21:12;;;;;;;2.75;1.20;;;;;;;26.06;27.88;94944.75;4955678;28;20043;-44
2020/12/11 07:23:38;;;;;;;1.63;1.20;;;;;;;26.07;28.00;94941.16;4957269;28;20050;-44
2020/12/11 07:26:03;;;;;;;3.42;0.80;;;;;;;26.07;28.12;94939.38;4956608;28;20038;-46
2020/12/11 07:28:29;;;;;;;1.50;0.90;;;;;;;26.07;27.87;94923.63;4958306;28;20570;-46
2020/12/11 07:30:55;;;;;;;0.95;0.82;;;;;;;26.08;28.10;94927.91;4957715;28;20093;-46
2020/12/11 07:33:20;;;;;;;1.08;0.85;;;;;;;26.09;28.05;94919.06;4958903;28;20155;-48
2020/12/11 07:35:49;;;;;;;1.60;0.90;;;;;;;26.09;28.22;94919.06;4958423;28;20051;-47
2020/12/11 07:38:16;;;;;;;1.83;0.90;;;;;;;26.09;28.03;94921.69;4961205;28;20039;-46
2020/12/11 07:40:42;;;;;;;2.75;1.20;;;;;;;26.10;28.16;94923.34;4957822;28;20046;-46
2020/12/11 07:43:09;;;;;;;5.28;0.85;;;;;;;26.12;28.29;94932.91;4958551;28;20193;-44
2020/12/11 07:45:36;;;;;;;1.30;0.90;;;;;;;26.13;28.17;94926.69;4957663;28;20051;-43
2020/12/11 07:48:02;;;;;;;3.75;1.10;;;;;;;26.14;28.30;94925.72;4959108;28;20480;-46
2020/12/11 07:50:28;;;;;;;2.28;0.90;;;;;;;26.15;28.29;94919.50;4959287;28;20034;-46
2020/12/11 07:52:55;;;;;;;2.15;1.10;;;;;;;26.13;28.27;94919.66;4955846;28;20049;-45
2020/12/11 07:55:29;;;;;;;0.57;0.55;;;;;;;26.15;28.22;94927.38;4956332;28;20069;-43
2020/12/11 07:57:57;;;;;;;1.98;1.00;;;;;;;26.16;28.30;94922.00;4960454;28;20022;-44
2020/12/11 08:00:23;;;;;;;2.10;0.77;;;;;;;26.19;28.02;94926.16;4955410;28;20039;-46
2020/12/11 08:02:56;;;;;;;1.10;0.80;;;;;;;26.17;28.00;94917.59;4957133;28;20053;-46
2020/12/11 08:05:22;;;;;;;1.00;0.82;;;;;;;26.21;28.10;94911.94;4961616;28;20061;-44
2020/12/11 08:07:54;;;;;;;1.00;0.95;;;;;;;26.23;28.17;94914.44;4956918;28;20050;-46
2020/12/11 08:10:22;;;;;;;2.47;1.08;;;;;;;26.24;28.05;94910.88;4960984;28;20042;-45
2020/12/11 08:12:48;;;;;;;1.48;0.85;;;;;;;26.26;28.01;94903.72;4954682;28;20479;-46
2020/12/11 08:15:32;;;;;;;1.48;1.00;;;;;;;26.28;27.98;94899.16;4971894;28;20043;-46
2020/12/11 08:18:07;;;;;;;3.45;0.90;;;;;;;26.31;28.14;94896.28;4956273;28;20027;-46
2020/12/11 08:20:51;;;;;;;3.55;0.98;;;;;;;26.34;28.19;94895.19;4958531;28;20737;-46
2020/12/11 08:23:18;;;;;;;8.82;4.95;;;;;;;26.30;22.28;94899.88;4955940;28;20084;-46
2020/12/11 08:25:43;;;;;;;4.43;2.08;;;;;;;26.27;27.32;94894.88;4958395;28;20089;-46
2020/12/11 08:28:09;;;;;;;10.55;2.83;;;;;;;26.26;25.65;94898.47;4957640;28;20519;-46
2020/12/11 08:30:35;;;;;;;8.50;2.30;;;;;;;26.24;27.59;94895.13;4953380;28;20461;-46
2020/12/11 08:33:08;;;;;;;6.28;2.03;;;;;;;26.25;27.72;94890.69;4953152;28;20035;-48
2020/12/11 08:35:39;;;;;;;7.32;2.25;;;;;;;26.25;27.82;94883.66;4952528;28;20042;-47
2020/12/11 08:38:05;;;;;;;7.40;1.98;;;;;;;26.25;27.97;94891.53;4968660;28;20039;-46
2020/12/11 08:40:31;;;;;;;5.90;1.92;;;;;;;26.27;27.91;94884.38;4954281;28;20043;-46
2020/12/11 08:46:01;;;;;;;8.20;2.42;;;;;;;26.27;27.71;94873.88;4952958;28;20043;-48
2020/12/11 08:51:01;;;;;;;4.05;2.03;;;;;;;26.30;27.66;94888.53;4957059;28;20058;-47
2020/12/11 08:53:28;;;;;;;6.40;2.25;;;;;;;26.33;27.80;94876.00;4957228;28;20030;-46
2020/12/11 08:55:54;;;;;;;9.35;1.83;;;;;;;26.35;27.83;94879.31;4956278;28;20070;-48
2020/12/11 08:58:19;;;;;;;4.45;1.88;;;;;;;26.38;27.77;94880.84;4954534;28;20047;-47
2020/12/11 09:00:45;;;;;;;4.40;1.98;;;;;;;26.41;27.88;94879.75;4953354;28;20077;-45
2020/12/11 09:03:12;;;;;;;5.55;1.60;;;;;;;26.44;27.71;94882.09;4953320;28;20066;-48
2020/12/11 09:05:38;;;;;;;5.05;1.75;;;;;;;26.46;27.73;94882.78;4957613;28;20042;-46
2020/12/11 09:08:04;;;;;;;7.15;1.85;;;;;;;26.47;27.72;94879.22;4951263;28;20039;-46
2020/12/11 09:10:31;;;;;;;4.63;1.83;;;;;;;26.49;27.73;94882.53;4952017;28;20055;-48
2020/12/11 09:13:00;;;;;;;2.60;1.50;;;;;;;26.50;27.79;94884.19;4953035;28;20050;-47
2020/12/11 09:15:27;;;;;;;4.35;1.90;;;;;;;26.52;27.58;94897.19;4954377;28;20051;-46
2020/12/11 09:17:52;;;;;;;3.22;1.65;;;;;;;26.51;27.55;94899.00;4954383;28;20149;-48
2020/12/11 09:20:18;;;;;;;5.43;1.67;;;;;;;26.52;26.55;94903.28;4952431;28;20051;-46
2020/12/11 09:22:44;;;;;;;62.08;8.60;;;;;;;26.39;22.02;94887.75;4953546;28;20039;-50
2020/12/11 09:25:09;;;;;;;21.88;8.00;;;;;;;26.12;18.89;94885.66;4954989;28;20077;-45
2020/12/11 09:27:38;;;;;;;11.38;10.13;;;;;;;25.59;16.85;94888.22;4954234;28;20178;-46
2020/12/11 09:32:50;;;;;;;20.27;14.32;;;;;;;24.25;17.40;94896.91;4952300;28;20074;-47
2020/12/11 09:35:16;;;;;;;17.90;10.48;;;;;;;23.92;19.40;94895.88;4954976;28;20029;-45
2020/12/11 09:37:49;;;;;;;11.57;8.35;;;;;;;23.86;21.31;94885.88;4954203;28;20500;-45
2020/12/11 09:40:15;;;;;;;12.25;7.00;;;;;;;23.92;22.32;94890.66;4960376;28;20074;-46
2020/12/11 09:42:56;;;;;;;10.73;6.05;;;;;;;24.04;22.87;94883.66;4968307;28;20042;-44
2020/12/11 09:45:39;;;;;;;13.60;5.55;;;;;;;24.18;23.51;94877.38;4962307;28;20088;-46
2020/12/11 09:50:38;;;;;;;10.05;4.28;;;;;;;24.32;24.29;94851.94;4961604;28;20051;-46
2020/12/11 09:56:04;;;;;;;10.00;3.92;;;;;;;24.70;24.54;94852.50;4965391;28;20078;-47
2020/12/11 09:58:31;;;;;;;10.70;3.70;;;;;;;24.79;24.64;94860.44;4958348;28;20043;-44
2020/12/11 10:00:57;;;;;;;5.03;3.30;;;;;;;24.89;24.66;94862.34;4965356;28;20073;-46
2020/12/11 10:03:30;;;;;;;6.80;3.58;;;;;;;24.98;24.83;94861.59;4968203;28;20039;-45
2020/12/11 10:05:56;;;;;;;6.18;3.17;;;;;;;25.05;25.10;94860.16;4966574;28;20051;-51
2020/12/11 10:08:21;;;;;;;5.20;3.05;;;;;;;25.14;24.87;94860.38;4953880;28;20758;-47
2020/12/11 10:10:47;;;;;;;5.07;2.70;;;;;;;25.20;25.21;94844.16;4964107;28;20043;-46
2020/12/11 10:13:13;;;;;;;5.43;2.70;;;;;;;25.26;25.10;94842.81;4966839;28;20031;-47
2020/12/11 10:15:40;;;;;;;8.52;2.83;;;;;;;25.30;25.20;94842.44;4968607;28;20049;-46
2020/12/11 10:18:06;;;;;;;6.03;2.78;;;;;;;25.23;25.54;94815.06;4965319;28;20038;-47
2020/12/11 10:20:34;;;;;;;8.48;3.08;;;;;;;25.42;25.25;94829.28;4961931;28;20473;-47
2020/12/11 10:23:01;;;;;;;3.90;2.38;;;;;;;25.46;25.36;94833.31;4967529;28;20182;-48
2020/12/11 10:25:26;;;;;;;10.63;2.72;;;;;;;25.50;25.43;94832.09;4968765;28;20046;-48
2020/12/11 10:27:52;;;;;;;6.20;2.95;;;;;;;25.55;25.71;94836.97;4955500;28;20039;-45
2020/12/11 10:30:17;;;;;;;3.65;2.70;;;;;;;25.60;25.59;94833.97;4960648;28;20575;-46
2020/12/11 10:32:44;;;;;;;4.60;2.40;;;;;;;25.63;25.66;94834.53;4966344;28;20644;-47
2020/12/11 10:35:10;;;;;;;3.47;2.13;;;;;;;25.68;25.69;94826.31;4961150;28;20093;-47
2020/12/11 10:37:35;;;;;;;6.80;2.40;;;;;;;25.70;25.62;94812.09;4965491;28;20034;-46
2020/12/11 10:40:03;;;;;;;2.95;2.13;;;;;;;25.74;25.71;94825.78;4963510;28;20097;-45
2020/12/11 10:42:28;;;;;;;3.13;2.10;;;;;;;25.76;25.63;94813.38;4968130;28;20503;-46
2020/12/11 10:44:54;;;;;;;4.93;2.20;;;;;;;25.79;25.68;94813.13;4955954;28;20090;-45
2020/12/11 10:47:20;;;;;;;3.97;2.35;;;;;;;25.80;26.00;94814.78;4968703;28;20419;-48
2020/12/11 10:49:46;;;;;;;4.05;2.53;;;;;;;25.82;25.81;94802.34;4964500;28;20456;-47
2020/12/11 10:52:11;;;;;;;3.60;2.17;;;;;;;25.85;26.15;94795.19;4963778;28;20326;-47
2020/12/11 10:54:37;;;;;;;5.78;2.20;;;;;;;25.86;25.96;94796.84;4969870;28;20045;-47
2020/12/11 10:57:03;;;;;;;5.43;2.00;;;;;;;25.89;26.09;94788.72;4964299;28;20048;-47
2020/12/11 10:59:29;;;;;;;3.55;2.08;;;;;;;25.93;26.00;94790.13;4966324;28;20069;-45
2020/12/11 11:01:54;;;;;;;2.92;2.00;;;;;;;25.96;26.09;94779.34;4964564;28;20047;-48
2020/12/11 11:04:20;;;;;;;3.50;1.80;;;;;;;26.00;26.19;94770.25;4966652;28;20035;-45
2020/12/11 11:07:31;;;;;;;5.05;1.90;;;;;;;26.01;26.25;94763.22;4952542;28;20053;-48
2020/12/11 11:09:37;;;;;;;2.78;1.85;;;;;;;26.03;26.18;94754.25;4955071;28;20098;-46
2020/12/11 11:23:03;;;;;;;3.60;1.80;;;;;;;26.08;26.35;94723.19;4965260;28;20035;-48
2020/12/11 11:28:13;;;;;;;2.35;1.80;;;;;;;26.09;26.50;94705.66;4967023;28;20045;-47
2020/12/11 11:30:40;;;;;;;2.95;2.13;;;;;;;26.08;26.60;94723.19;4962331;28;20167;-46
2020/12/11 11:33:05;;;;;;;2.35;1.75;;;;;;;26.08;26.36;94699.56;4959560;28;20077;-46
2020/12/11 11:35:32;;;;;;;2.92;1.83;;;;;;;26.08;26.38;94696.94;4967065;28;20039;-46
2020/12/11 11:37:57;;;;;;;3.22;1.85;;;;;;;26.10;26.52;94705.50;4961903;28;20034;-44
2020/12/11 11:40:24;;;;;;;2.05;1.70;;;;;;;26.11;26.68;94701.09;4978510;28;20039;-47
2020/12/11 11:42:50;;;;;;;2.63;1.58;;;;;;;26.15;26.62;94696.38;4966030;28;20046;-48
2020/12/11 11:45:19;;;;;;;2.70;1.75;;;;;;;26.16;26.73;94695.44;4965835;28;20400;-46
2020/12/11 11:47:50;;;;;;;2.20;1.40;;;;;;;26.17;26.77;94686.59;4960475;28;20058;-48
2020/12/11 11:52:47;;;;;;;2.17;1.42;;;;;;;26.21;26.81;94695.84;4961725;28;20042;-47
2020/12/11 11:55:13;;;;;;;1.48;1.20;;;;;;;26.24;26.83;94690.34;4964027;28;20034;-45
2020/12/11 11:57:39;;;;;;;2.83;1.60;;;;;;;26.26;26.95;94693.69;4954928;28;20093;-46
2020/12/11 12:00:06;;;;;;;2.08;1.52;;;;;;;26.28;26.70;94688.31;4966233;28;20042;-46
2020/12/11 12:02:32;;;;;;;2.42;1.42;;;;;;;26.15;26.66;94665.72;4965510;28;20097;-46